Time;durP1;ratioP1;P1;durP2;ratioP2;P2;SDS_P1;SDS_P2;PMS_P1;PMS_P2;Temp;Humidity;BMP_temperature;BMP_pressure;BME280_temperature;BME280_humidity;BME280_pressure;Samples;Min_cycle;Max_cycle;Signal;HPM_P1;HPM_P2
2023/01/08 00:01:42;;;;;;;2.00;1.40;;;9.60;39.40;;;;;;5011214;28;20193;-72
2023/01/08 00:04:08;;;;;;;1.77;1.13;;;9.50;39.90;;;;;;4999871;28;20471;-72
2023/01/08 00:06:34;;;;;;;3.00;1.53;;;9.50;40.10;;;;;;5002131;28;20221;-73
2023/01/08 00:09:00;;;;;;;2.00;1.40;;;9.80;39.40;;;;;;4990266;28;20182;-70
2023/01/08 00:11:26;;;;;;;2.40;1.42;;;9.80;39.40;;;;;;5004413;28;20460;-73
2023/01/08 00:13:52;;;;;;;3.20;2.30;;;8.90;39.60;;;;;;4992139;28;20181;-72
2023/01/08 00:16:18;;;;;;;1.90;1.30;;;8.20;40.90;;;;;;4990740;28;20182;-73
2023/01/08 00:18:45;;;;;;;3.25;1.65;;;8.40;40.50;;;;;;4990343;28;20209;-73
2023/01/08 00:21:11;;;;;;;2.65;1.50;;;8.50;40.60;;;;;;4997586;28;20702;-72
2023/01/08 00:23:37;;;;;;;1.97;1.33;;;8.40;40.60;;;;;;4991468;28;20181;-72
2023/01/08 00:26:06;;;;;;;1.95;1.25;;;8.20;41.00;;;;;;4992135;28;20405;-72
2023/01/08 00:28:32;;;;;;;3.50;1.95;;;7.60;43.10;;;;;;4997518;28;20861;-72
2023/01/08 00:30:58;;;;;;;2.63;1.60;;;7.80;41.90;;;;;;4991094;28;20210;-72
2023/01/08 00:33:24;;;;;;;2.77;2.13;;;7.90;41.50;;;;;;4991684;28;20655;-72
2023/01/08 00:35:50;;;;;;;2.00;1.30;;;7.90;41.60;;;;;;4992016;28;20178;-72
2023/01/08 00:38:15;;;;;;;2.57;2.03;;;7.80;41.30;;;;;;4987603;28;20440;-72
2023/01/08 00:40:41;;;;;;;2.97;1.97;;;7.90;40.80;;;;;;4986381;28;20449;-72
2023/01/08 00:43:07;;;;;;;1.83;1.50;;;7.60;41.30;;;;;;4990247;28;20175;-72
2023/01/08 00:45:32;;;;;;;2.00;1.33;;;7.60;42.00;;;;;;4997070;28;20178;-71
2023/01/08 00:47:58;;;;;;;3.07;2.30;;;7.90;41.20;;;;;;4990657;28;20417;-71
2023/01/08 00:50:24;;;;;;;1.83;1.20;;;7.90;41.20;;;;;;4987889;28;20193;-72
2023/01/08 00:52:50;;;;;;;3.53;2.00;;;7.70;41.20;;;;;;4995296;28;20181;-72
2023/01/08 00:55:16;;;;;;;1.97;1.27;;;7.80;41.30;;;;;;4994918;28;20251;-71
2023/01/08 00:57:42;;;;;;;1.80;1.10;;;7.60;41.80;;;;;;4990732;28;20430;-71
2023/01/08 01:00:10;;;;;;;2.30;1.40;;;8.10;41.40;;;;;;4995910;28;20714;-71
2023/01/08 01:02:36;;;;;;;1.80;1.13;;;7.70;41.20;;;;;;4998849;28;20265;-72
2023/01/08 01:05:04;;;;;;;1.90;1.20;;;7.50;42.00;;;;;;4997120;28;20188;-72
2023/01/08 01:07:29;;;;;;;2.60;1.60;;;7.20;42.90;;;;;;4998734;28;20528;-72
2023/01/08 01:09:55;;;;;;;1.80;1.20;;;7.30;42.80;;;;;;4993808;28;20239;-72
2023/01/08 01:12:21;;;;;;;1.80;1.10;;;7.50;42.60;;;;;;5002131;28;20590;-72
2023/01/08 01:14:46;;;;;;;16.03;2.27;;;7.60;42.50;;;;;;4991727;28;20189;-73
2023/01/08 01:17:12;;;;;;;2.43;1.60;;;7.40;43.20;;;;;;4995173;28;20174;-72
2023/01/08 01:19:38;;;;;;;2.00;1.50;;;7.50;42.80;;;;;;4996276;28;20264;-71
2023/01/08 01:22:04;;;;;;;1.90;1.30;;;7.40;42.60;;;;;;5002893;28;20201;-72
2023/01/08 01:24:29;;;;;;;1.80;1.10;;;7.50;42.50;;;;;;4993838;28;20186;-72
2023/01/08 01:26:56;;;;;;;1.90;1.23;;;7.50;42.50;;;;;;4994324;28;20186;-71
2023/01/08 01:29:22;;;;;;;1.88;1.20;;;7.60;42.20;;;;;;5000721;28;20178;-72
2023/01/08 01:31:48;;;;;;;1.92;1.38;;;7.80;41.60;;;;;;4985838;28;20318;-72
2023/01/08 01:34:14;;;;;;;3.40;2.27;;;7.80;41.70;;;;;;4994525;28;20268;-72
2023/01/08 01:36:39;;;;;;;1.77;1.10;;;7.80;41.90;;;;;;4994830;28;20185;-72
2023/01/08 01:39:05;;;;;;;2.93;1.67;;;7.60;42.00;;;;;;4996005;28;20671;-71
2023/01/08 01:41:36;;;;;;;1.97;1.30;;;7.80;42.60;;;;;;4994092;28;20233;-72
2023/01/08 01:44:39;;;;;;;4.05;1.90;;;8.10;41.80;;;;;;4991754;28;20196;-72
2023/01/08 01:47:14;;;;;;;1.70;1.10;;;8.10;41.10;;;;;;4996082;28;20577;-72
2023/01/08 01:49:47;;;;;;;1.88;1.23;;;7.90;42.10;;;;;;5002794;28;20284;-72
2023/01/08 01:52:13;;;;;;;2.60;1.88;;;8.10;41.80;;;;;;4992326;28;20604;-72
2023/01/08 01:54:38;;;;;;;2.83;1.87;;;8.20;41.30;;;;;;4992670;28;20285;-72
2023/01/08 01:57:06;;;;;;;2.00;1.40;;;8.30;41.00;;;;;;5003680;28;20276;-72
2023/01/08 01:59:32;;;;;;;1.70;1.15;;;8.20;41.20;;;;;;5002229;28;20212;-72
2023/01/08 02:01:59;;;;;;;1.80;1.20;;;8.00;41.80;;;;;;5008073;28;20201;-71
2023/01/08 02:04:24;;;;;;;2.00;1.30;;;7.80;42.20;;;;;;4997505;28;20209;-72
2023/01/08 02:07:07;;;;;;;2.20;1.37;;;7.80;42.60;;;;;;4998068;28;20258;-72
2023/01/08 02:09:35;;;;;;;1.80;1.20;;;8.30;42.40;;;;;;4992231;28;20565;-72
2023/01/08 02:12:16;;;;;;;2.80;1.63;;;8.10;42.00;;;;;;5001070;28;20198;-72
2023/01/08 02:14:59;;;;;;;3.05;1.85;;;8.00;42.00;;;;;;4986205;28;20184;-72
2023/01/08 02:17:39;;;;;;;2.08;1.25;;;8.20;42.50;;;;;;4992117;28;20659;-72
2023/01/08 02:20:13;;;;;;;1.90;1.30;;;8.20;41.80;;;;;;4998132;28;20177;-72
2023/01/08 02:23:04;;;;;;;2.58;1.70;;;8.20;41.90;;;;;;4993829;28;20158;-72
2023/01/08 02:25:36;;;;;;;1.80;1.20;;;8.30;41.90;;;;;;5001955;28;20272;-72
2023/01/08 02:28:07;;;;;;;1.80;1.10;;;8.30;41.90;;;;;;4995399;28;20189;-72
2023/01/08 02:30:32;;;;;;;2.10;1.48;;;8.40;41.90;;;;;;5002287;28;20757;-72
2023/01/08 02:32:58;;;;;;;2.00;1.43;;;8.40;41.40;;;;;;4993294;28;20186;-73
2023/01/08 02:35:40;;;;;;;2.00;1.27;;;7.80;42.80;;;;;;4991840;28;20248;-72
2023/01/08 02:38:11;;;;;;;2.42;1.83;;;8.00;42.70;;;;;;4991776;28;20205;-73
2023/01/08 02:40:57;;;;;;;1.92;1.40;;;8.20;42.20;;;;;;4987062;28;20216;-72
2023/01/08 02:43:37;;;;;;;2.10;1.48;;;8.40;41.60;;;;;;4987458;28;20204;-72
2023/01/08 02:46:05;;;;;;;1.98;1.25;;;8.30;41.90;;;;;;4992141;28;20213;-73
2023/01/08 02:48:49;;;;;;;2.10;1.40;;;8.30;41.90;;;;;;4991920;28;20174;-73
2023/01/08 02:51:23;;;;;;;1.90;1.30;;;8.80;40.60;;;;;;5005310;28;20249;-73
2023/01/08 02:53:53;;;;;;;2.22;1.50;;;8.70;40.40;;;;;;4992081;28;20185;-74
2023/01/08 02:56:27;;;;;;;3.40;1.70;;;8.60;40.40;;;;;;4993601;28;20735;-73
2023/01/08 02:58:54;;;;;;;2.45;1.50;;;8.30;41.50;;;;;;5003339;28;20566;-73
2023/01/08 03:01:22;;;;;;;1.90;1.33;;;8.00;42.40;;;;;;4991792;28;20617;-72
2023/01/08 03:03:56;;;;;;;2.92;1.73;;;8.20;43.30;;;;;;5002183;28;20170;-74
2023/01/08 03:06:25;;;;;;;2.53;1.73;;;8.20;41.90;;;;;;5001315;28;20173;-74
2023/01/08 03:08:52;;;;;;;1.92;1.30;;;7.80;43.20;;;;;;4990754;28;20174;-74
2023/01/08 03:11:20;;;;;;;1.80;1.10;;;7.90;42.70;;;;;;5002810;28;20205;-72
2023/01/08 03:14:08;;;;;;;3.05;1.30;;;7.60;43.10;;;;;;5003803;28;20182;-73
2023/01/08 03:16:37;;;;;;;1.90;1.27;;;8.30;42.80;;;;;;5004438;28;20185;-73
2023/01/08 03:19:21;;;;;;;1.80;1.20;;;8.20;42.10;;;;;;5011318;28;20256;-71
2023/01/08 03:21:50;;;;;;;1.80;1.10;;;8.20;41.90;;;;;;4998986;28;20201;-73
2023/01/08 03:24:25;;;;;;;1.80;1.13;;;8.40;41.40;;;;;;5008593;28;20566;-72
2023/01/08 03:26:55;;;;;;;1.70;1.00;;;8.30;41.80;;;;;;4996102;28;20181;-72
2023/01/08 03:29:23;;;;;;;2.20;1.60;;;8.20;41.50;;;;;;4999927;28;20214;-72
2023/01/08 03:31:50;;;;;;;1.90;1.30;;;8.30;41.90;;;;;;4991827;28;20206;-73
2023/01/08 03:34:19;;;;;;;5.95;1.90;;;8.20;41.60;;;;;;5003381;28;20186;-73
2023/01/08 03:36:47;;;;;;;1.75;1.10;;;8.30;41.80;;;;;;5000603;28;20209;-72
2023/01/08 03:39:18;;;;;;;1.77;1.13;;;8.30;41.90;;;;;;4991797;28;20614;-73
2023/01/08 03:41:44;;;;;;;4.07;1.52;;;8.30;42.30;;;;;;4994078;28;20201;-73
2023/01/08 03:44:11;;;;;;;2.35;1.65;;;8.40;41.90;;;;;;5011994;28;20219;-74
2023/01/08 03:46:43;;;;;;;1.90;1.30;;;8.50;41.80;;;;;;5010998;28;20182;-74
2023/01/08 03:49:10;;;;;;;2.00;1.52;;;8.70;41.10;;;;;;4996056;28;20317;-73
2023/01/08 03:51:44;;;;;;;2.40;1.40;;;8.50;41.80;;;;;;4987997;28;20217;-73
2023/01/08 03:54:16;;;;;;;1.80;1.10;;;8.70;41.60;;;;;;5007188;28;20188;-72
2023/01/08 03:56:42;;;;;;;3.25;1.80;;;8.60;41.70;;;;;;4995172;28;20201;-73
2023/01/08 03:59:07;;;;;;;1.80;1.20;;;8.60;41.40;;;;;;4996300;28;20212;-73
2023/01/08 04:01:33;;;;;;;1.80;1.30;;;8.80;41.00;;;;;;4991357;28;21003;-72
2023/01/08 04:03:58;;;;;;;2.13;1.47;;;8.70;41.20;;;;;;4992186;28;20221;-72
2023/01/08 04:06:24;;;;;;;2.57;1.60;;;8.70;40.80;;;;;;5008383;28;20169;-73
2023/01/08 04:08:50;;;;;;;2.60;1.80;;;8.50;41.40;;;;;;4992144;28;20631;-73
2023/01/08 04:11:16;;;;;;;2.65;1.52;;;8.40;41.80;;;;;;4989415;28;20691;-73
2023/01/08 04:13:41;;;;;;;1.70;1.20;;;7.90;43.40;;;;;;4991523;28;20181;-72
2023/01/08 04:16:07;;;;;;;1.90;1.30;;;7.70;44.40;;;;;;4998850;28;20178;-73
2023/01/08 04:18:33;;;;;;;2.00;1.37;;;7.80;44.50;;;;;;4993746;28;20560;-77
2023/01/08 04:20:59;;;;;;;1.70;1.10;;;8.00;43.20;;;;;;5001582;28;20213;-74
2023/01/08 04:23:25;;;;;;;2.20;1.50;;;8.20;43.80;;;;;;4991743;28;20196;-74
2023/01/08 04:25:51;;;;;;;1.80;1.13;;;8.50;42.30;;;;;;4994694;28;20173;-74
2023/01/08 04:28:17;;;;;;;1.90;1.20;;;8.50;42.10;;;;;;5001240;28;20260;-71
2023/01/08 04:30:43;;;;;;;1.97;1.30;;;8.50;42.20;;;;;;5006764;28;20293;-74
2023/01/08 04:33:08;;;;;;;2.00;1.37;;;8.30;42.50;;;;;;4991828;28;20197;-72
2023/01/08 04:35:34;;;;;;;2.23;1.30;;;8.40;43.00;;;;;;4993293;28;20177;-74
2023/01/08 04:38:00;;;;;;;1.83;1.20;;;8.50;42.70;;;;;;4997408;28;20690;-73
2023/01/08 04:40:25;;;;;;;2.30;1.40;;;8.60;42.80;;;;;;4990742;28;20436;-75
2023/01/08 04:42:51;;;;;;;2.57;1.40;;;8.60;42.80;;;;;;4990925;28;20636;-74
2023/01/08 04:45:17;;;;;;;1.90;1.30;;;8.80;42.20;;;;;;4998942;28;20192;-71
2023/01/08 04:47:42;;;;;;;1.90;1.17;;;9.20;41.70;;;;;;4989452;28;20182;-73
2023/01/08 04:50:08;;;;;;;1.80;1.10;;;9.20;41.00;;;;;;4989226;28;20179;-75
2023/01/08 04:52:34;;;;;;;1.90;1.20;;;9.20;41.60;;;;;;5010284;28;20192;-74
2023/01/08 04:55:00;;;;;;;1.83;1.17;;;9.30;41.40;;;;;;5009496;28;20182;-75
2023/01/08 04:57:25;;;;;;;1.80;1.10;;;9.30;41.10;;;;;;4996218;28;20190;-74
2023/01/08 04:59:51;;;;;;;2.57;1.60;;;9.30;41.50;;;;;;5002557;28;20201;-74
2023/01/08 05:02:17;;;;;;;2.27;1.37;;;9.20;42.00;;;;;;5002817;28;20205;-74
2023/01/08 05:04:43;;;;;;;1.80;1.10;;;9.10;42.60;;;;;;5004977;28;20551;-74
2023/01/08 05:07:08;;;;;;;1.90;1.13;;;9.10;42.50;;;;;;5013862;28;20177;-74
2023/01/08 05:09:34;;;;;;;1.90;1.10;;;9.60;42.40;;;;;;5015248;28;20239;-75
2023/01/08 05:11:59;;;;;;;3.80;1.60;;;9.20;42.60;;;;;;4994779;28;20229;-74
2023/01/08 05:14:25;;;;;;;1.87;1.10;;;9.30;42.80;;;;;;4992862;28;20639;-73
2023/01/08 05:16:50;;;;;;;1.90;1.10;;;9.60;42.10;;;;;;5013471;28;20225;-74
2023/01/08 05:19:16;;;;;;;1.80;1.07;;;9.70;41.90;;;;;;4998202;28;20217;-74
2023/01/08 05:21:42;;;;;;;1.90;1.10;;;9.80;42.30;;;;;;5002202;28;20201;-74
2023/01/08 05:24:08;;;;;;;2.00;1.30;;;9.70;42.10;;;;;;4993941;28;20191;-73
2023/01/08 05:26:34;;;;;;;1.90;1.20;;;9.90;41.20;;;;;;5012209;28;20188;-73
2023/01/08 05:29:00;;;;;;;1.80;1.00;;;10.10;40.00;;;;;;5014753;28;20177;-73
2023/01/08 05:31:25;;;;;;;2.00;1.30;;;9.80;42.50;;;;;;5012078;28;20200;-73
2023/01/08 05:33:51;;;;;;;2.07;1.30;;;10.10;40.00;;;;;;4994242;28;20189;-74
2023/01/08 05:36:16;;;;;;;2.77;1.83;;;10.20;39.70;;;;;;5001383;28;20181;-74
2023/01/08 05:38:42;;;;;;;2.97;1.87;;;10.30;39.30;;;;;;5013313;28;20194;-74
2023/01/08 05:41:09;;;;;;;1.87;1.10;;;10.40;39.30;;;;;;5014116;28;20201;-73
2023/01/08 05:43:34;;;;;;;1.90;1.10;;;10.30;39.90;;;;;;4999870;28;20186;-75
2023/01/08 05:46:01;;;;;;;2.00;1.17;;;10.10;41.00;;;;;;4993111;28;20547;-74
2023/01/08 05:48:28;;;;;;;2.10;1.40;;;10.00;41.40;;;;;;5007031;28;20447;-75
2023/01/08 05:50:54;;;;;;;1.90;1.00;;;9.90;42.30;;;;;;5000471;28;20210;-73
2023/01/08 05:53:20;;;;;;;2.07;1.30;;;10.00;41.50;;;;;;4999641;28;20659;-75
2023/01/08 05:55:46;;;;;;;2.30;1.47;;;10.10;40.70;;;;;;4993295;28;20459;-74
2023/01/08 05:58:11;;;;;;;1.90;1.10;;;9.50;42.80;;;;;;5001022;28;20638;-74
2023/01/08 06:00:38;;;;;;;1.87;1.13;;;8.80;45.50;;;;;;5003651;28;20329;-74
2023/01/08 06:03:04;;;;;;;2.10;1.30;;;8.50;46.50;;;;;;4989705;28;20182;-74
2023/01/08 06:05:31;;;;;;;2.00;1.20;;;8.60;46.20;;;;;;4992846;28;20719;-74
2023/01/08 06:08:00;;;;;;;1.98;1.20;;;9.10;45.60;;;;;;4994308;28;20274;-72
2023/01/08 06:10:25;;;;;;;1.90;1.10;;;9.40;44.80;;;;;;5001012;28;20533;-73
2023/01/08 06:12:51;;;;;;;2.47;1.40;;;9.40;44.50;;;;;;4993480;28;20232;-73
2023/01/08 06:15:17;;;;;;;2.60;1.77;;;9.80;43.90;;;;;;4993466;28;20185;-75
2023/01/08 06:17:42;;;;;;;1.93;1.20;;;9.90;43.50;;;;;;4991460;28;20280;-73
2023/01/08 06:20:09;;;;;;;1.97;1.20;;;9.90;44.00;;;;;;5000651;28;20830;-74
2023/01/08 06:22:35;;;;;;;1.90;1.20;;;9.90;44.20;;;;;;5006599;28;20663;-72
2023/01/08 06:25:01;;;;;;;2.10;1.40;;;10.00;43.20;;;;;;4992486;28;20190;-74
2023/01/08 06:27:26;;;;;;;1.80;1.10;;;10.30;43.10;;;;;;4987272;28;20593;-74
2023/01/08 06:29:52;;;;;;;2.03;1.27;;;9.90;44.50;;;;;;4998231;28;20261;-75
2023/01/08 06:32:18;;;;;;;1.80;1.10;;;9.80;46.90;;;;;;4996624;28;20201;-73
2023/01/08 06:34:43;;;;;;;1.80;1.10;;;9.50;49.90;;;;;;5000009;28;20195;-72
2023/01/08 06:37:09;;;;;;;2.00;1.10;;;9.50;51.30;;;;;;4983604;28;20598;-73
2023/01/08 06:39:34;;;;;;;1.80;1.10;;;9.90;53.20;;;;;;5005718;28;20238;-74
2023/01/08 06:42:01;;;;;;;1.90;1.10;;;9.90;53.10;;;;;;5003621;28;20192;-74
2023/01/08 06:44:26;;;;;;;1.90;1.10;;;10.00;53.80;;;;;;5007973;28;20174;-74
2023/01/08 06:46:52;;;;;;;1.97;1.10;;;10.30;51.80;;;;;;4984233;28;20239;-73
2023/01/08 06:49:18;;;;;;;1.90;1.00;;;10.60;51.30;;;;;;4992899;28;20186;-74
2023/01/08 06:51:44;;;;;;;2.00;1.20;;;10.80;49.90;;;;;;5000590;28;20198;-73
2023/01/08 06:54:10;;;;;;;1.90;1.10;;;11.00;50.40;;;;;;5002576;28;20188;-73
2023/01/08 06:56:35;;;;;;;2.00;1.10;;;11.30;49.80;;;;;;5002239;28;20464;-75
2023/01/08 06:59:01;;;;;;;1.90;1.10;;;11.60;49.80;;;;;;5013127;28;20280;-74
2023/01/08 07:01:27;;;;;;;2.00;1.20;;;11.70;47.80;;;;;;5003322;28;20189;-75
2023/01/08 07:03:52;;;;;;;2.00;1.20;;;11.70;48.50;;;;;;4999325;28;20683;-75
2023/01/08 07:06:20;;;;;;;1.90;1.00;;;11.50;49.20;;;;;;4991706;28;20742;-73
2023/01/08 07:08:46;;;;;;;2.50;1.33;;;11.90;48.50;;;;;;5004685;28;20183;-75
2023/01/08 07:11:13;;;;;;;2.00;1.20;;;11.70;48.30;;;;;;4998346;28;20221;-75
2023/01/08 07:13:38;;;;;;;2.00;1.10;;;11.80;48.00;;;;;;4994319;28;20438;-74
2023/01/08 07:16:08;;;;;;;2.20;1.40;;;11.80;48.40;;;;;;5003834;28;20881;-74
2023/01/08 07:18:34;;;;;;;1.90;1.10;;;11.40;49.90;;;;;;4983836;28;20850;-76
2023/01/08 07:21:04;;;;;;;1.90;1.10;;;11.70;50.80;;;;;;4993328;28;20224;-75
2023/01/08 07:23:31;;;;;;;1.98;1.17;;;11.50;51.20;;;;;;4993094;28;20643;-75
2023/01/08 07:26:00;;;;;;;2.00;1.20;;;11.70;50.30;;;;;;4998097;28;20182;-76
2023/01/08 07:28:26;;;;;;;1.90;1.10;;;11.40;49.90;;;;;;5004885;28;20193;-75
2023/01/08 07:30:52;;;;;;;2.20;1.40;;;11.40;50.80;;;;;;4999284;28;20740;-75
2023/01/08 07:33:18;;;;;;;1.87;1.10;;;11.60;50.10;;;;;;4991207;28;20277;-75
2023/01/08 07:35:49;;;;;;;1.97;1.13;;;11.60;50.10;;;;;;5002777;28;20206;-74
2023/01/08 07:38:15;;;;;;;2.10;1.30;;;11.60;50.10;;;;;;4991749;28;20312;-75
2023/01/08 07:40:40;;;;;;;1.87;1.10;;;11.30;51.70;;;;;;4992172;28;20715;-75
2023/01/08 07:43:07;;;;;;;1.90;1.10;;;11.30;52.30;;;;;;4994257;28;20555;-75
2023/01/08 07:45:33;;;;;;;2.00;1.15;;;11.30;52.60;;;;;;4991207;28;20263;-78
2023/01/08 07:47:59;;;;;;;1.90;1.10;;;11.70;52.60;;;;;;4994010;28;20923;-73
2023/01/08 07:50:26;;;;;;;1.90;1.10;;;11.40;53.40;;;;;;5011188;28;20182;-73
2023/01/08 07:52:52;;;;;;;2.10;1.30;;;11.60;52.10;;;;;;4996434;28;20243;-72
2023/01/08 07:55:17;;;;;;;2.00;1.20;;;11.60;51.90;;;;;;5000356;28;20197;-75
2023/01/08 07:57:43;;;;;;;2.00;1.13;;;11.80;51.60;;;;;;5003569;28;20193;-77
2023/01/08 08:00:09;;;;;;;2.50;1.53;;;11.70;51.80;;;;;;4992218;28;20182;-74
2023/01/08 08:02:35;;;;;;;2.10;1.40;;;11.80;51.70;;;;;;5007219;28;20188;-75
2023/01/08 08:05:00;;;;;;;4.30;1.50;;;11.80;52.60;;;;;;4992395;28;20178;-72
2023/01/08 08:07:29;;;;;;;2.10;1.33;;;11.70;53.30;;;;;;4990594;28;20182;-74
2023/01/08 08:09:54;;;;;;;2.10;1.40;;;11.80;52.00;;;;;;4991919;28;20255;-75
2023/01/08 08:12:20;;;;;;;3.07;2.40;;;12.30;50.70;;;;;;4990703;28;20241;-75
2023/01/08 08:14:45;;;;;;;1.90;1.10;;;12.00;49.10;;;;;;4999913;28;20177;-72
2023/01/08 08:17:11;;;;;;;2.00;1.20;;;11.80;49.70;;;;;;4991717;28;20170;-74
2023/01/08 08:19:36;;;;;;;1.97;1.10;;;11.90;51.40;;;;;;4991858;28;20209;-79
2023/01/08 08:22:02;;;;;;;2.63;1.63;;;11.90;50.30;;;;;;4993188;28;20318;-73
2023/01/08 08:24:27;;;;;;;1.87;1.07;;;11.90;50.30;;;;;;5000181;28;20180;-74
2023/01/08 08:26:53;;;;;;;2.50;1.50;;;11.90;50.50;;;;;;4991951;28;20224;-76
2023/01/08 08:29:19;;;;;;;2.60;1.30;;;11.60;52.10;;;;;;4991688;28;20193;-75
2023/01/08 08:31:46;;;;;;;2.00;1.10;;;11.70;52.40;;;;;;4999517;28;20236;-73
2023/01/08 08:34:13;;;;;;;2.00;1.10;;;11.90;52.90;;;;;;4998530;28;20196;-73
2023/01/08 08:36:42;;;;;;;2.00;1.10;;;11.90;48.60;;;;;;5002555;28;20184;-74
2023/01/08 08:39:11;;;;;;;1.95;1.20;;;12.10;48.60;;;;;;4996355;28;20198;-72
2023/01/08 08:41:37;;;;;;;1.90;1.10;;;12.10;49.10;;;;;;4989903;28;20206;-73
2023/01/08 08:44:02;;;;;;;2.00;1.10;;;12.30;46.50;;;;;;4990228;28;20232;-76
2023/01/08 08:46:28;;;;;;;2.00;1.10;;;11.80;48.10;;;;;;5001445;28;20189;-75
2023/01/08 08:48:54;;;;;;;1.87;1.00;;;11.90;49.20;;;;;;5011695;28;20185;-76
2023/01/08 08:51:19;;;;;;;1.97;1.10;;;11.70;48.10;;;;;;5003729;28;20202;-76
2023/01/08 08:53:45;;;;;;;2.20;1.20;;;11.60;48.40;;;;;;4998512;28;20671;-75
2023/01/08 08:56:10;;;;;;;2.10;1.10;;;11.70;48.00;;;;;;4999120;28;20190;-77
2023/01/08 08:58:36;;;;;;;2.10;1.20;;;11.60;48.60;;;;;;4988520;28;20198;-76
2023/01/08 09:01:03;;;;;;;2.10;1.30;;;11.60;50.80;;;;;;4991442;28;20323;-75
2023/01/08 09:03:29;;;;;;;1.98;1.10;;;11.70;50.20;;;;;;4994566;28;20170;-73
2023/01/08 09:05:55;;;;;;;2.00;1.10;;;11.70;50.20;;;;;;5003573;28;20173;-75
2023/01/08 09:08:21;;;;;;;2.00;1.00;;;11.70;50.90;;;;;;4988264;28;20451;-76
2023/01/08 09:10:46;;;;;;;2.10;1.13;;;11.60;51.10;;;;;;4985602;28;20206;-76
2023/01/08 09:13:12;;;;;;;2.03;1.13;;;11.50;51.10;;;;;;4998210;28;20322;-76
2023/01/08 09:15:38;;;;;;;2.03;1.13;;;11.50;47.30;;;;;;4989645;28;20285;-75
2023/01/08 09:18:03;;;;;;;2.10;1.20;;;12.40;50.10;;;;;;4982167;28;20573;-75
2023/01/08 09:20:29;;;;;;;2.10;1.10;;;11.60;48.60;;;;;;4991351;28;20234;-75
2023/01/08 09:22:57;;;;;;;2.10;1.20;;;11.60;48.90;;;;;;4995869;28;20205;-76
2023/01/08 09:25:23;;;;;;;2.10;1.20;;;11.50;48.70;;;;;;4993039;28;20186;-74
2023/01/08 09:27:56;;;;;;;2.10;1.10;;;12.20;47.80;;;;;;4992915;28;20846;-77
2023/01/08 09:30:22;;;;;;;2.10;1.10;;;12.30;47.30;;;;;;4995340;28;20640;-75
2023/01/08 09:32:48;;;;;;;2.53;1.20;;;12.20;44.70;;;;;;4990768;28;20460;-72
2023/01/08 09:35:13;;;;;;;2.70;1.33;;;12.00;45.00;;;;;;4997311;28;20683;-72
2023/01/08 09:37:39;;;;;;;2.20;1.30;;;12.10;46.80;;;;;;4993363;28;20235;-73
2023/01/08 09:40:05;;;;;;;2.10;1.10;;;12.20;47.90;;;;;;4993985;28;20647;-72
2023/01/08 09:42:31;;;;;;;2.20;1.20;;;12.40;46.80;;;;;;4994762;28;20201;-72
2023/01/08 09:44:58;;;;;;;2.20;1.20;;;12.50;46.20;;;;;;4999626;28;20490;-72
2023/01/08 09:47:36;;;;;;;2.27;1.20;;;12.20;46.20;;;;;;4989365;28;20446;-77
2023/01/08 09:50:10;;;;;;;2.20;1.10;;;12.10;45.60;;;;;;4985885;28;20486;-77
2023/01/08 09:52:36;;;;;;;2.30;1.20;;;11.90;47.30;;;;;;5002371;28;20440;-76
2023/01/08 09:55:02;;;;;;;2.50;1.27;;;12.00;46.00;;;;;;5004202;28;20472;-76
2023/01/08 09:57:28;;;;;;;2.23;1.10;;;12.30;47.20;;;;;;4997318;28;20441;-77
2023/01/08 09:59:54;;;;;;;2.30;1.20;;;12.50;48.30;;;;;;4987609;28;20805;-77
2023/01/08 10:02:23;;;;;;;2.30;1.20;;;12.00;45.70;;;;;;4999323;28;20456;-77
2023/01/08 10:04:56;;;;;;;2.37;1.20;;;12.30;44.60;;;;;;4994489;28;20272;-75
2023/01/08 10:07:24;;;;;;;2.40;1.30;;;13.00;41.90;;;;;;4996026;28;20561;-78
2023/01/08 10:09:51;;;;;;;2.80;1.30;;;12.80;41.00;;;;;;5000224;28;20451;-80
2023/01/08 10:12:30;;;;;;;2.60;1.30;;;13.00;39.20;;;;;;5004262;28;20474;-78
2023/01/08 10:15:02;;;;;;;2.60;1.20;;;13.00;41.60;;;;;;5016657;28;20456;-75
2023/01/08 10:17:38;;;;;;;2.60;1.30;;;13.20;40.60;;;;;;5011221;28;20429;-76
2023/01/08 10:20:09;;;;;;;2.90;1.40;;;13.00;40.10;;;;;;5021146;28;20443;-78
2023/01/08 10:22:35;;;;;;;2.50;1.10;;;13.10;41.20;;;;;;5002533;28;20448;-76
2023/01/08 10:25:15;;;;;;;2.73;1.23;;;10.50;39.10;;;;;;4991946;28;20448;-76
2023/01/08 10:27:49;;;;;;;2.87;1.33;;;12.10;42.00;;;;;;4997336;28;20185;-78
2023/01/08 10:30:17;;;;;;;2.63;1.10;;;12.50;42.40;;;;;;4991481;28;20448;-81
2023/01/08 10:33:05;;;;;;;2.73;1.20;;;12.70;40.60;;;;;;4989477;28;20446;-79
2023/01/08 10:35:34;;;;;;;2.80;1.30;;;13.00;40.20;;;;;;5005078;28;20445;-77
2023/01/08 10:38:01;;;;;;;2.70;1.10;;;12.80;40.60;;;;;;4995836;28;20456;-75
2023/01/08 10:40:34;;;;;;;2.80;1.20;;;12.90;40.20;;;;;;5006294;28;20970;-78
2023/01/08 10:43:19;;;;;;;3.03;1.40;;;13.30;38.00;;;;;;5007984;28;20522;-77
2023/01/08 10:46:00;;;;;;;2.83;1.30;;;13.60;38.10;;;;;;4989284;28;20448;-77
2023/01/08 10:48:33;;;;;;;2.73;1.20;;;13.80;38.40;;;;;;4994164;28;20997;-76
2023/01/08 10:51:26;;;;;;;2.80;1.20;;;13.20;37.70;;;;;;5004906;28;20475;-77
2023/01/08 10:53:53;;;;;;;2.80;1.10;;;13.00;38.80;;;;;;4990431;28;20445;-76
2023/01/08 10:56:30;;;;;;;2.70;1.10;;;13.40;39.20;;;;;;4992551;28;20970;-76
2023/01/08 10:58:56;;;;;;;2.90;1.30;;;13.40;39.00;;;;;;4996544;28;20582;-78
2023/01/08 11:01:23;;;;;;;2.80;1.10;;;14.00;37.00;;;;;;4998728;28;20508;-76
2023/01/08 11:03:56;;;;;;;2.90;1.30;;;14.40;36.50;;;;;;4995302;28;20190;-76
2023/01/08 11:06:30;;;;;;;2.93;1.30;;;14.00;37.50;;;;;;4990816;28;20464;-76
2023/01/08 11:09:24;;;;;;;2.80;1.00;;;13.60;36.60;;;;;;4989015;28;20958;-77
2023/01/08 11:11:50;;;;;;;2.90;1.20;;;13.40;38.90;;;;;;4984503;28;20460;-74
2023/01/08 11:14:29;;;;;;;2.90;1.10;;;13.50;38.70;;;;;;4999608;28;20500;-74
2023/01/08 11:16:55;;;;;;;2.90;1.10;;;13.70;35.80;;;;;;4992735;28;20434;-78
2023/01/08 11:19:27;;;;;;;3.00;1.20;;;13.50;36.50;;;;;;4992666;28;20473;-74
2023/01/08 11:22:23;;;;;;;3.20;1.30;;;13.80;35.90;;;;;;4994618;28;20460;-78
2023/01/08 11:24:50;;;;;;;2.80;1.10;;;14.40;35.80;;;;;;5000160;28;20443;-78
2023/01/08 11:27:34;;;;;;;3.10;1.40;;;14.90;34.40;;;;;;4993943;28;20965;-78
2023/01/08 11:30:16;;;;;;;3.27;1.30;;;15.10;33.70;;;;;;5001311;28;20430;-83
2023/01/08 11:32:46;;;;;;;3.00;1.23;;;14.90;33.20;;;;;;4994629;28;20431;-78
2023/01/08 11:35:20;;;;;;;3.10;1.50;;;14.70;34.10;;;;;;4994026;28;20468;-77
2023/01/08 11:37:58;;;;;;;2.83;1.10;;;14.60;33.70;;;;;;5009445;28;20430;-77
2023/01/08 11:40:30;;;;;;;2.97;1.20;;;15.00;33.50;;;;;;4993278;28;20410;-74
2023/01/08 11:43:11;;;;;;;2.93;1.30;;;14.80;33.30;;;;;;4997454;28;20474;-79
2023/01/08 11:45:55;;;;;;;2.90;1.20;;;14.70;33.70;;;;;;5000873;28;20514;-77
2023/01/08 11:48:39;;;;;;;2.90;1.10;;;14.80;33.40;;;;;;5002649;28;20533;-78
2023/01/08 11:51:20;;;;;;;2.90;1.20;;;14.80;34.40;;;;;;5004421;28;20515;-76
2023/01/08 11:54:07;;;;;;;2.90;1.20;;;15.10;32.90;;;;;;4983258;28;20944;-76
2023/01/08 11:57:00;;;;;;;2.90;1.30;;;15.00;32.40;;;;;;4994899;28;20492;-75
2023/01/08 12:00:02;;;;;;;2.90;1.30;;;14.90;32.30;;;;;;4993387;28;20472;-77
2023/01/08 12:02:31;;;;;;;2.90;1.30;;;14.60;33.70;;;;;;4982155;28;20953;-77
2023/01/08 12:05:05;;;;;;;2.87;1.20;;;15.00;32.60;;;;;;4988295;28;20417;-78
2023/01/08 12:07:48;;;;;;;2.80;1.10;;;14.90;34.20;;;;;;4997504;28;20956;-77
2023/01/08 12:10:48;;;;;;;3.10;1.30;;;14.80;32.70;;;;;;4992559;28;20439;-76
2023/01/08 12:13:33;;;;;;;2.80;1.20;;;15.20;33.00;;;;;;4988889;28;20511;-75
2023/01/08 12:16:36;;;;;;;2.80;1.20;;;15.50;32.00;;;;;;4991781;28;20410;-75
2023/01/08 12:19:04;;;;;;;2.90;1.20;;;15.20;31.80;;;;;;4993662;28;20528;-77
2023/01/08 12:21:45;;;;;;;2.70;1.10;;;15.30;32.10;;;;;;4988840;28;20460;-76
2023/01/08 12:24:19;;;;;;;2.80;1.20;;;15.20;31.80;;;;;;4999066;28;20818;-77
2023/01/08 12:27:05;;;;;;;2.90;1.30;;;15.30;31.00;;;;;;4972884;28;20528;-77
2023/01/08 12:30:07;;;;;;;2.80;1.20;;;15.40;33.20;;;;;;4986809;28;20449;-76
2023/01/08 12:32:45;;;;;;;2.90;1.20;;;15.60;31.30;;;;;;4973882;28;20915;-76
2023/01/08 12:35:16;;;;;;;2.80;1.20;;;16.00;30.00;;;;;;4998547;28;20436;-77
2023/01/08 12:37:58;;;;;;;2.90;1.30;;;16.20;29.60;;;;;;4999183;28;20437;-76
2023/01/08 12:40:45;;;;;;;2.80;1.20;;;15.90;30.30;;;;;;4991525;28;20432;-74
2023/01/08 12:43:24;;;;;;;2.70;1.10;;;15.70;30.30;;;;;;4984689;28;20456;-77
2023/01/08 12:45:53;;;;;;;2.90;1.30;;;15.70;31.90;;;;;;4987858;28;20429;-73
2023/01/08 12:48:23;;;;;;;2.90;1.30;;;15.30;31.70;;;;;;4991573;28;20432;-73
2023/01/08 12:51:00;;;;;;;2.70;1.10;;;15.20;31.00;;;;;;4989652;28;20460;-74
2023/01/08 12:53:41;;;;;;;2.90;1.30;;;15.60;30.20;;;;;;4990895;28;20679;-74
2023/01/08 12:56:09;;;;;;;2.80;1.10;;;15.50;30.10;;;;;;4987990;28;20460;-72
2023/01/08 12:58:56;;;;;;;2.90;1.30;;;15.40;31.10;;;;;;4990602;28;20984;-74
2023/01/08 13:01:43;;;;;;;2.90;1.30;;;15.20;31.10;;;;;;4991116;28;20457;-71
2023/01/08 13:04:10;;;;;;;2.90;1.30;;;15.40;31.00;;;;;;4990330;28;20460;-71
2023/01/08 13:06:36;;;;;;;3.00;1.37;;;15.40;30.80;;;;;;4997410;28;20433;-71